createdAt,value
2017-05-22T00:01:52.836Z,13.50
2017-05-22T00:04:21.368Z,13.50
2017-05-22T00:06:49.913Z,13.70
2017-05-22T00:09:18.422Z,13.80
2017-05-22T00:11:46.931Z,13.80
2017-05-22T00:14:15.466Z,13.80
2017-05-22T00:16:43.966Z,13.80
2017-05-22T00:19:12.466Z,13.80
2017-05-22T00:21:41.008Z,13.90
2017-05-22T00:24:09.509Z,13.80
2017-05-22T00:26:38.012Z,13.80
2017-05-22T00:29:06.565Z,13.70
2017-05-22T00:31:35.073Z,13.80
2017-05-22T00:34:03.573Z,13.70
2017-05-22T00:36:32.128Z,13.70
2017-05-22T00:39:00.626Z,13.70
2017-05-22T00:41:29.127Z,13.60
2017-05-22T00:43:57.665Z,13.60
2017-05-22T00:46:26.168Z,13.70
2017-05-22T00:48:54.677Z,13.70
2017-05-22T00:51:23.245Z,13.60
2017-05-22T00:53:51.744Z,13.60
2017-05-22T00:56:20.248Z,13.60
2017-05-22T00:58:48.787Z,13.60
2017-05-22T01:01:17.309Z,13.60
2017-05-22T01:03:45.812Z,13.60
2017-05-22T01:06:14.357Z,13.70
2017-05-22T01:08:42.861Z,13.70
2017-05-22T01:11:11.365Z,13.70
2017-05-22T01:13:39.909Z,13.70
2017-05-22T01:16:08.413Z,13.70
2017-05-22T01:18:36.916Z,13.70
2017-05-22T01:21:05.456Z,13.70
2017-05-22T01:23:33.960Z,13.70
2017-05-22T01:26:02.457Z,13.60
2017-05-22T01:28:30.996Z,13.60
2017-05-22T01:30:59.510Z,13.60
2017-05-22T01:33:28.024Z,13.60
2017-05-22T01:35:56.589Z,13.60
2017-05-22T01:38:25.120Z,13.70
2017-05-22T01:40:53.629Z,13.60
2017-05-22T01:43:22.188Z,13.60
2017-05-22T01:45:50.686Z,13.60
2017-05-22T01:48:19.210Z,13.60
2017-05-22T01:50:47.751Z,13.60
2017-05-22T01:53:16.251Z,13.70
2017-05-22T01:55:44.753Z,13.60
2017-05-22T01:58:13.296Z,13.70
2017-05-22T02:00:41.798Z,13.70
2017-05-22T02:03:10.293Z,13.60
2017-05-22T02:05:38.868Z,13.60
2017-05-22T02:08:07.372Z,13.50
2017-05-22T02:10:35.873Z,13.50
2017-05-22T02:13:04.409Z,13.50
2017-05-22T02:15:32.908Z,13.50
2017-05-22T02:18:01.409Z,13.40
2017-05-22T02:20:30.242Z,13.40
2017-05-22T02:22:58.745Z,13.40
2017-05-22T02:25:27.255Z,13.40
2017-05-22T02:27:55.800Z,13.40
2017-05-22T02:30:24.412Z,13.40
2017-05-22T02:32:52.922Z,13.40
2017-05-22T02:35:21.463Z,13.40
2017-05-22T02:37:49.968Z,13.30
2017-05-22T02:40:18.477Z,13.40
2017-05-22T02:42:47.017Z,13.30
2017-05-22T02:45:15.511Z,13.30
2017-05-22T02:47:44.014Z,13.30
2017-05-22T02:50:12.559Z,13.30
2017-05-22T02:52:41.072Z,13.30
2017-05-22T02:55:09.573Z,13.20
2017-05-22T02:57:38.115Z,13.20
2017-05-22T03:00:06.615Z,13.20
2017-05-22T03:02:35.117Z,13.20
2017-05-22T03:05:03.666Z,13.20
2017-05-22T03:07:32.188Z,13.20
2017-05-22T03:10:00.693Z,13.20
2017-05-22T03:12:29.236Z,13.20
2017-05-22T03:14:57.741Z,13.30
2017-05-22T03:17:26.244Z,13.30
2017-05-22T03:19:54.783Z,13.30
2017-05-22T03:22:23.279Z,13.40
2017-05-22T03:24:51.785Z,13.40
2017-05-22T03:27:20.323Z,13.50
2017-05-22T03:29:48.824Z,13.50
2017-05-22T03:32:17.320Z,13.50
2017-05-22T03:34:45.883Z,13.50
2017-05-22T03:37:14.393Z,13.50
2017-05-22T03:39:42.897Z,13.40
2017-05-22T03:42:11.435Z,13.50
2017-05-22T03:44:39.935Z,13.40
2017-05-22T03:47:08.440Z,13.40
2017-05-22T03:49:37.003Z,13.50
2017-05-22T03:52:05.506Z,13.60
2017-05-22T03:54:34.033Z,13.70
2017-05-22T03:57:02.580Z,13.70
2017-05-22T03:59:31.076Z,13.70
2017-05-22T04:01:59.587Z,13.80
2017-05-22T04:04:28.167Z,13.90
2017-05-22T04:06:56.659Z,13.90
2017-05-22T04:09:25.159Z,14.00
2017-05-22T04:11:53.730Z,14.00
2017-05-22T04:14:22.236Z,14.20
2017-05-22T04:16:50.748Z,14.20
2017-05-22T04:19:19.290Z,14.20
2017-05-22T04:21:47.787Z,14.20
2017-05-22T04:24:16.352Z,14.30
2017-05-22T04:26:44.893Z,14.30
2017-05-22T04:29:13.391Z,14.30
2017-05-22T04:31:41.887Z,14.30
2017-05-22T04:34:10.429Z,14.30
2017-05-22T04:36:38.933Z,14.30
2017-05-22T04:39:07.427Z,14.30
2017-05-22T04:41:35.970Z,14.30
2017-05-22T04:44:04.467Z,14.50
2017-05-22T04:46:32.969Z,14.60
2017-05-22T04:49:01.511Z,14.70
2017-05-22T04:51:30.050Z,14.80
2017-05-22T04:53:58.560Z,15.30
2017-05-22T04:56:26.342Z,15.30
2017-05-22T04:58:54.838Z,15.70
2017-05-22T05:01:23.340Z,15.80
2017-05-22T05:03:51.883Z,16.00
2017-05-22T05:06:20.389Z,16.20
2017-05-22T05:08:48.894Z,16.50
2017-05-22T05:11:18.132Z,16.90
2017-05-22T05:13:46.629Z,17.10
2017-05-22T05:16:16.029Z,17.40
2017-05-22T05:18:44.580Z,17.50
2017-05-22T05:21:13.081Z,17.70
2017-05-22T05:23:41.584Z,18.20
2017-05-22T05:26:10.154Z,18.60
2017-05-22T05:28:38.692Z,19.50
2017-05-22T05:31:07.203Z,20.00
2017-05-22T05:33:35.745Z,20.20
2017-05-22T05:36:04.256Z,20.00
2017-05-22T05:38:32.752Z,20.70
2017-05-22T05:41:01.291Z,21.70
2017-05-22T05:43:29.792Z,21.80
2017-05-22T05:45:58.319Z,21.50
2017-05-22T05:48:26.860Z,21.00
2017-05-22T05:50:55.364Z,20.50
2017-05-22T05:53:23.863Z,19.80
2017-05-22T05:55:52.398Z,19.50
2017-05-22T05:58:20.909Z,19.00
2017-05-22T06:00:49.413Z,18.60
2017-05-22T06:03:17.955Z,18.90
2017-05-22T06:05:46.456Z,19.00
2017-05-22T06:08:14.954Z,19.00
2017-05-22T06:10:42.763Z,19.00
2017-05-22T06:13:11.265Z,20.00
2017-05-22T06:15:39.767Z,20.40
2017-05-22T06:18:08.305Z,20.60
2017-05-22T06:20:36.810Z,20.90
2017-05-22T06:23:05.320Z,21.70
2017-05-22T06:25:33.913Z,22.50
2017-05-22T06:28:02.416Z,22.70
2017-05-22T06:30:30.912Z,22.80
2017-05-22T06:32:59.452Z,23.60
2017-05-22T06:35:27.956Z,23.70
2017-05-22T06:37:56.460Z,25.40
2017-05-22T06:40:25.028Z,26.30
2017-05-22T06:42:53.529Z,26.40
2017-05-22T06:45:22.032Z,25.60
2017-05-22T06:47:50.754Z,25.90
2017-05-22T06:50:19.257Z,27.90
2017-05-22T06:52:47.765Z,28.90
2017-05-22T06:55:16.307Z,28.70
2017-05-22T06:57:44.811Z,26.30
2017-05-22T07:00:13.313Z,25.40
2017-05-22T07:02:41.855Z,24.60
2017-05-22T07:05:10.356Z,23.80
2017-05-22T07:07:38.857Z,23.40
2017-05-22T07:10:07.401Z,23.80
2017-05-22T07:12:35.903Z,23.70
2017-05-22T07:15:04.408Z,24.00
2017-05-22T07:17:32.953Z,24.10
2017-05-22T07:20:01.465Z,24.60
2017-05-22T07:22:29.961Z,24.60
2017-05-22T07:24:58.505Z,24.90
2017-05-22T07:27:27.006Z,26.00
2017-05-22T07:29:55.499Z,26.80
2017-05-22T07:32:24.060Z,27.40
2017-05-22T07:34:52.559Z,28.30
2017-05-22T07:37:21.060Z,29.00
2017-05-22T07:39:49.627Z,29.60
2017-05-22T07:42:18.139Z,29.10
2017-05-22T07:44:46.641Z,28.70
2017-05-22T07:47:15.175Z,28.30
2017-05-22T07:49:43.677Z,29.40
2017-05-22T07:52:12.176Z,29.30
2017-05-22T07:54:40.722Z,30.20
2017-05-22T07:57:09.223Z,29.40
2017-05-22T07:59:37.716Z,29.90
2017-05-22T08:02:06.255Z,31.80
2017-05-22T08:04:34.757Z,31.20
2017-05-22T08:07:03.260Z,31.00
2017-05-22T08:09:31.797Z,30.50
2017-05-22T08:12:00.305Z,28.90
2017-05-22T08:14:28.811Z,30.40
2017-05-22T08:16:57.364Z,31.70
2017-05-22T08:19:25.864Z,32.30
2017-05-22T08:21:54.372Z,32.50
2017-05-22T08:24:22.910Z,32.10
2017-05-22T08:26:51.421Z,29.10
2017-05-22T08:29:19.924Z,28.00
2017-05-22T08:31:48.467Z,28.30
2017-05-22T08:34:17.004Z,29.30
2017-05-22T08:36:45.507Z,30.50
2017-05-22T08:39:14.057Z,29.90
2017-05-22T08:41:42.556Z,29.10
2017-05-22T08:44:11.057Z,30.00
2017-05-22T08:46:39.596Z,29.80
2017-05-22T08:49:08.100Z,30.40
2017-05-22T08:51:36.604Z,31.10
2017-05-22T08:54:05.409Z,32.40
2017-05-22T08:56:33.913Z,32.50
2017-05-22T08:59:02.420Z,32.40
2017-05-22T09:01:30.960Z,31.60
2017-05-22T09:03:59.463Z,30.20
2017-05-22T09:06:27.960Z,28.90
2017-05-22T09:08:56.503Z,29.90
2017-05-22T09:11:24.998Z,29.80
2017-05-22T09:13:53.507Z,29.00
2017-05-22T09:16:22.048Z,29.20
2017-05-22T09:18:50.542Z,28.50
2017-05-22T09:21:19.049Z,29.10
2017-05-22T09:23:47.613Z,29.20
2017-05-22T09:26:16.117Z,29.40
2017-05-22T09:28:44.621Z,28.30
2017-05-22T09:31:13.400Z,27.80
2017-05-22T09:33:41.904Z,27.00
2017-05-22T09:36:10.403Z,25.40
2017-05-22T09:38:38.953Z,24.80
2017-05-22T09:41:07.459Z,23.70
2017-05-22T09:43:35.972Z,23.80
2017-05-22T09:46:04.518Z,24.20
2017-05-22T09:48:33.030Z,24.30
2017-05-22T09:51:01.535Z,23.60
2017-05-22T09:53:30.072Z,23.70
2017-05-22T09:55:58.573Z,23.80
2017-05-22T09:58:27.076Z,23.40
2017-05-22T10:00:55.620Z,23.30
2017-05-22T10:03:24.119Z,23.10
2017-05-22T10:05:52.619Z,23.00
2017-05-22T10:08:20.393Z,22.90
2017-05-22T10:10:48.900Z,23.80
2017-05-22T10:13:17.407Z,23.90
2017-05-22T10:15:45.953Z,24.30
2017-05-22T10:18:14.452Z,24.50
2017-05-22T10:20:42.957Z,24.80
2017-05-22T10:23:11.497Z,25.00
2017-05-22T10:25:40.004Z,24.70
2017-05-22T10:28:08.516Z,25.10
2017-05-22T10:30:37.057Z,25.20
2017-05-22T10:33:05.555Z,24.60
2017-05-22T10:35:34.091Z,24.70
2017-05-22T10:38:02.628Z,24.20
2017-05-22T10:40:31.133Z,23.80
2017-05-22T10:42:59.635Z,23.70
2017-05-22T10:45:28.175Z,23.90
2017-05-22T10:47:56.677Z,23.90
2017-05-22T10:50:25.179Z,23.80
2017-05-22T10:52:53.724Z,24.20
2017-05-22T10:55:22.279Z,23.80
2017-05-22T10:57:50.781Z,24.00
2017-05-22T11:00:19.333Z,24.50
2017-05-22T11:02:47.840Z,24.10
2017-05-22T11:05:16.563Z,23.60
2017-05-22T11:07:45.112Z,23.70
2017-05-22T11:10:13.608Z,23.80
2017-05-22T11:12:42.110Z,23.70
2017-05-22T11:15:10.661Z,23.10
2017-05-22T11:17:39.165Z,23.10
2017-05-22T11:20:07.674Z,22.60
2017-05-22T11:22:36.208Z,22.70
2017-05-22T11:25:04.709Z,22.40
2017-05-22T11:27:33.211Z,22.60
2017-05-22T11:30:01.784Z,22.60
2017-05-22T11:32:30.287Z,22.40
2017-05-22T11:34:58.797Z,22.50
2017-05-22T11:37:27.340Z,22.20
2017-05-22T11:39:55.851Z,21.90
2017-05-22T11:42:24.365Z,21.90
2017-05-22T11:44:52.904Z,22.10
2017-05-22T11:47:21.412Z,22.60
2017-05-22T11:49:49.939Z,22.50
2017-05-22T11:52:18.484Z,22.20
2017-05-22T11:54:46.984Z,21.80
2017-05-22T11:57:15.483Z,21.70
2017-05-22T11:59:44.024Z,22.00
2017-05-22T12:02:12.520Z,21.90
2017-05-22T12:04:41.024Z,21.70
2017-05-22T12:07:09.574Z,21.70
2017-05-22T12:09:38.075Z,22.10
2017-05-22T12:12:06.570Z,22.30
2017-05-22T12:14:35.110Z,22.70
2017-05-22T12:17:03.635Z,23.00
2017-05-22T12:19:32.136Z,23.20
2017-05-22T12:22:00.680Z,23.30
2017-05-22T12:24:29.197Z,23.20
2017-05-22T12:26:57.703Z,22.70
2017-05-22T12:29:26.248Z,22.10
2017-05-22T12:31:54.757Z,22.00
2017-05-22T12:34:23.489Z,22.00
2017-05-22T12:36:52.026Z,22.10
2017-05-22T12:39:20.524Z,22.20
2017-05-22T12:41:49.027Z,22.10
2017-05-22T12:44:17.582Z,22.20
2017-05-22T12:46:46.087Z,22.30
2017-05-22T12:49:14.598Z,22.60
2017-05-22T12:51:43.153Z,22.80
2017-05-22T12:54:11.656Z,23.00
2017-05-22T12:56:40.155Z,23.10
2017-05-22T12:59:08.729Z,23.10
2017-05-22T13:01:37.231Z,23.00
2017-05-22T13:04:05.731Z,22.90
2017-05-22T13:06:34.275Z,22.90
2017-05-22T13:09:02.779Z,22.70
2017-05-22T13:11:31.280Z,22.80
2017-05-22T13:13:59.839Z,22.90
2017-05-22T13:16:28.335Z,22.70
2017-05-22T13:18:56.840Z,22.60
2017-05-22T13:21:25.380Z,22.40
2017-05-22T13:23:53.876Z,22.30
2017-05-22T13:26:22.385Z,22.50
2017-05-22T13:28:50.926Z,22.80
2017-05-22T13:31:19.429Z,23.10
2017-05-22T13:33:47.950Z,23.20
2017-05-22T13:36:16.491Z,23.00
2017-05-22T13:38:44.989Z,22.80
2017-05-22T13:41:13.492Z,22.90
2017-05-22T13:43:42.029Z,22.90
2017-05-22T13:46:10.524Z,22.80
2017-05-22T13:48:39.036Z,22.90
2017-05-22T13:51:07.576Z,22.90
2017-05-22T13:53:36.084Z,22.80
2017-05-22T13:56:04.583Z,22.80
2017-05-22T13:58:33.124Z,22.80
2017-05-22T14:01:01.628Z,22.70
2017-05-22T14:03:30.133Z,22.90
2017-05-22T14:05:58.676Z,23.00
2017-05-22T14:08:27.177Z,23.00
2017-05-22T14:10:55.683Z,23.00
2017-05-22T14:13:24.222Z,23.00
2017-05-22T14:15:52.728Z,22.80
2017-05-22T14:18:21.227Z,22.50
2017-05-22T14:20:49.773Z,22.50
2017-05-22T14:23:18.277Z,22.80
2017-05-22T14:25:46.771Z,23.10
2017-05-22T14:28:15.312Z,23.30
2017-05-22T14:30:43.812Z,23.40
2017-05-22T14:33:12.361Z,23.60
2017-05-22T14:35:40.903Z,23.40
2017-05-22T14:38:09.416Z,23.00
2017-05-22T14:40:37.927Z,22.90
2017-05-22T14:43:06.488Z,22.90
2017-05-22T14:45:35.002Z,23.00
2017-05-22T14:48:03.504Z,23.00
2017-05-22T14:50:32.054Z,23.00
2017-05-22T14:53:00.575Z,22.70
2017-05-22T14:55:29.073Z,22.60
2017-05-22T14:57:57.624Z,22.40
2017-05-22T15:00:26.120Z,22.50
2017-05-22T15:02:54.620Z,22.60
2017-05-22T15:05:23.166Z,22.70
2017-05-22T15:07:51.673Z,22.90
2017-05-22T15:10:20.181Z,22.80
2017-05-22T15:12:48.987Z,22.80
2017-05-22T15:15:17.479Z,22.80
2017-05-22T15:17:45.979Z,22.80
2017-05-22T15:20:14.523Z,22.70
2017-05-22T15:22:43.017Z,22.50
2017-05-22T15:25:11.521Z,22.50
2017-05-22T15:27:40.077Z,22.50
2017-05-22T15:30:08.579Z,22.60
2017-05-22T15:32:37.085Z,22.60
2017-05-22T15:35:05.632Z,22.60
2017-05-22T15:37:34.137Z,22.60
2017-05-22T15:40:02.639Z,22.70
2017-05-22T15:42:31.184Z,22.70
2017-05-22T15:44:59.688Z,22.60
2017-05-22T15:47:28.193Z,22.60
2017-05-22T15:49:56.748Z,22.60
2017-05-22T15:52:25.249Z,22.70
2017-05-22T15:54:53.749Z,22.80
2017-05-22T15:57:22.297Z,22.60
2017-05-22T15:59:50.796Z,22.50
2017-05-22T16:02:19.298Z,22.50
2017-05-22T16:04:47.851Z,22.70
2017-05-22T16:07:16.353Z,22.70
2017-05-22T16:09:44.850Z,22.80
2017-05-22T16:12:13.398Z,22.70
2017-05-22T16:14:41.905Z,22.70
2017-05-22T16:17:10.414Z,22.70
2017-05-22T16:19:38.956Z,22.70
2017-05-22T16:22:07.467Z,22.60
2017-05-22T16:24:35.968Z,22.30
2017-05-22T16:27:04.508Z,22.10
2017-05-22T16:29:33.020Z,21.90
2017-05-22T16:32:01.517Z,21.80
2017-05-22T16:34:30.060Z,21.60
2017-05-22T16:36:58.558Z,21.60
2017-05-22T16:39:27.065Z,21.40
2017-05-22T16:41:55.612Z,21.40
2017-05-22T16:44:24.113Z,21.30
2017-05-22T16:46:52.615Z,21.30
2017-05-22T16:49:21.225Z,21.40
2017-05-22T16:51:49.732Z,21.20
2017-05-22T16:54:18.234Z,21.20
2017-05-22T16:56:46.781Z,21.10
2017-05-22T16:59:15.280Z,21.10
2017-05-22T17:01:43.780Z,21.10
2017-05-22T17:04:12.333Z,20.90
2017-05-22T17:06:40.846Z,20.90
2017-05-22T17:09:09.356Z,20.80
2017-05-22T17:11:37.902Z,20.80
2017-05-22T17:14:06.402Z,20.70
2017-05-22T17:16:34.905Z,20.80
2017-05-22T17:19:03.444Z,20.80
2017-05-22T17:21:31.945Z,20.70
2017-05-22T17:24:00.444Z,20.60
2017-05-22T17:26:28.997Z,20.40
2017-05-22T17:28:58.392Z,20.30
2017-05-22T17:31:26.909Z,20.30
2017-05-22T17:33:55.463Z,20.20
2017-05-22T17:36:23.995Z,20.20
2017-05-22T17:38:52.549Z,20.20
2017-05-22T17:41:21.095Z,20.10
2017-05-22T17:43:58.580Z,20.00
2017-05-22T17:46:27.121Z,19.90
2017-05-22T17:48:55.614Z,19.80
2017-05-22T17:51:24.116Z,19.80
2017-05-22T17:53:52.665Z,19.80
2017-05-22T17:56:21.168Z,19.70
2017-05-22T17:58:49.685Z,19.70
2017-05-22T18:01:18.227Z,19.60
2017-05-22T18:03:46.728Z,19.50
2017-05-22T18:06:15.252Z,19.40
2017-05-22T18:08:43.793Z,19.40
2017-05-22T18:11:12.316Z,19.30
2017-05-22T18:13:40.816Z,19.30
2017-05-22T18:16:09.382Z,19.20
2017-05-22T18:18:37.888Z,19.20
2017-05-22T18:21:06.403Z,19.00
2017-05-22T18:23:34.949Z,19.00
2017-05-22T18:26:03.451Z,18.90
2017-05-22T18:28:31.958Z,18.80
2017-05-22T18:31:00.566Z,18.70
2017-05-22T18:33:29.767Z,18.60
2017-05-22T18:35:58.270Z,18.40
2017-05-22T18:38:26.812Z,18.30
2017-05-22T18:40:55.315Z,18.20
2017-05-22T18:43:23.912Z,18.10
2017-05-22T18:45:52.463Z,18.10
2017-05-22T18:48:21.005Z,18.00
2017-05-22T18:50:49.525Z,17.90
2017-05-22T18:53:18.068Z,17.90
2017-05-22T18:55:46.571Z,17.80
2017-05-22T18:58:15.541Z,17.70
2017-05-22T19:00:44.087Z,17.70
2017-05-22T19:03:12.583Z,17.70
2017-05-22T19:05:41.227Z,17.50
2017-05-22T19:08:09.908Z,17.60
2017-05-22T19:10:38.411Z,17.60
2017-05-22T19:13:06.907Z,17.50
2017-05-22T19:15:35.472Z,17.50
2017-05-22T19:18:03.980Z,17.40
2017-05-22T19:20:32.490Z,17.30
2017-05-22T19:23:01.037Z,17.20
2017-05-22T19:25:29.574Z,17.00
2017-05-22T19:27:58.099Z,17.10
2017-05-22T19:30:26.896Z,17.00
2017-05-22T19:32:55.397Z,17.00
2017-05-22T19:35:23.938Z,17.10
2017-05-22T19:37:52.562Z,17.00
2017-05-22T19:40:21.088Z,17.00
2017-05-22T19:42:50.519Z,16.90
2017-05-22T19:45:19.063Z,16.90
2017-05-22T19:47:51.298Z,16.80
2017-05-22T19:50:20.980Z,16.80
2017-05-22T19:52:49.612Z,16.80
2017-05-22T19:55:18.407Z,16.70
2017-05-22T19:57:47.548Z,16.60
2017-05-22T20:00:16.115Z,16.60
2017-05-22T20:02:48.445Z,16.60
2017-05-22T20:05:18.483Z,16.40
2017-05-22T20:07:48.079Z,16.30
2017-05-22T20:10:16.755Z,16.20
2017-05-22T20:12:47.392Z,16.10
2017-05-22T20:15:16.096Z,15.90
2017-05-22T20:17:44.600Z,15.80
2017-05-22T20:20:13.167Z,15.70
2017-05-22T20:22:41.684Z,15.70
2017-05-22T20:25:10.187Z,15.70
2017-05-22T20:27:38.739Z,15.60
2017-05-22T20:30:07.240Z,15.50
2017-05-22T20:32:35.743Z,15.60
2017-05-22T20:35:04.292Z,15.50
2017-05-22T20:37:32.854Z,15.50
2017-05-22T20:40:01.359Z,15.40
2017-05-22T20:42:29.900Z,15.40
2017-05-22T20:44:58.417Z,15.40
2017-05-22T20:47:26.920Z,15.30
2017-05-22T20:49:55.701Z,15.30
2017-05-22T20:52:24.213Z,15.30
2017-05-22T20:54:52.715Z,15.10
2017-05-22T20:57:21.264Z,15.10
2017-05-22T20:59:49.900Z,15.00
2017-05-22T21:02:18.413Z,15.00
2017-05-22T21:04:46.954Z,15.00
2017-05-22T21:07:15.460Z,15.00
2017-05-22T21:09:43.983Z,15.00
2017-05-22T21:12:12.523Z,15.00
2017-05-22T21:14:41.024Z,14.90
2017-05-22T21:17:09.536Z,14.90
2017-05-22T21:19:38.077Z,14.80
2017-05-22T21:22:06.577Z,14.80
2017-05-22T21:24:35.085Z,14.70
2017-05-22T21:27:03.630Z,14.70
2017-05-22T21:29:32.131Z,14.70
2017-05-22T21:32:00.635Z,14.60
2017-05-22T21:34:29.241Z,14.60
2017-05-22T21:36:57.741Z,14.50
2017-05-22T21:39:26.243Z,14.60
2017-05-22T21:41:54.788Z,14.50
2017-05-22T21:44:23.299Z,14.60
2017-05-22T21:46:51.804Z,14.50
2017-05-22T21:49:20.354Z,14.40
2017-05-22T21:51:48.850Z,14.40
2017-05-22T21:54:17.355Z,14.40
2017-05-22T21:56:45.892Z,14.30
2017-05-22T21:59:14.388Z,14.30
2017-05-22T22:01:42.887Z,14.30
2017-05-22T22:04:11.439Z,14.20
2017-05-22T22:06:39.947Z,14.20
2017-05-22T22:09:08.447Z,14.20
2017-05-22T22:11:37.001Z,14.20
2017-05-22T22:14:05.517Z,14.10
2017-05-22T22:16:34.023Z,14.10
2017-05-22T22:19:02.563Z,14.00
2017-05-22T22:21:31.064Z,14.10
2017-05-22T22:23:59.571Z,14.10
2017-05-22T22:26:28.114Z,14.10
2017-05-22T22:28:56.621Z,14.10
2017-05-22T22:31:25.130Z,14.00
2017-05-22T22:33:53.684Z,14.00
2017-05-22T22:36:22.193Z,13.90
2017-05-22T22:38:50.719Z,14.00
2017-05-22T22:41:19.295Z,14.00
2017-05-22T22:43:47.796Z,14.10
2017-05-22T22:46:16.297Z,14.00
2017-05-22T22:48:44.832Z,13.80
2017-05-22T22:51:13.334Z,13.80
2017-05-22T22:53:41.859Z,13.70
2017-05-22T22:56:10.410Z,13.70
2017-05-22T22:58:38.920Z,13.70
2017-05-22T23:01:07.483Z,13.70
2017-05-22T23:03:36.041Z,13.60
2017-05-22T23:06:04.547Z,13.60
2017-05-22T23:08:33.048Z,13.50
2017-05-22T23:11:01.586Z,13.40
2017-05-22T23:13:30.132Z,13.30
2017-05-22T23:15:58.639Z,13.20
2017-05-22T23:18:27.188Z,13.10
2017-05-22T23:20:55.689Z,13.10
2017-05-22T23:23:24.195Z,13.10
2017-05-22T23:25:52.741Z,13.00
2017-05-22T23:28:21.248Z,13.00
2017-05-22T23:30:49.759Z,12.90
2017-05-22T23:33:18.315Z,12.90
2017-05-22T23:35:46.823Z,12.90
2017-05-22T23:38:15.329Z,12.90
2017-05-22T23:40:43.908Z,12.80
2017-05-22T23:43:12.420Z,12.80
2017-05-22T23:45:40.927Z,12.80
2017-05-22T23:48:09.478Z,12.70
2017-05-22T23:50:37.988Z,12.70
2017-05-22T23:53:06.502Z,12.60
2017-05-22T23:55:35.050Z,12.60
2017-05-22T23:58:03.552Z,12.60
